Syosyun — JD2406 — position and weather

sailwx.info

Track history (hours):
 
Tides and Currents Weather Stations Pressure Air Temp Water Temp Dewpoint Dewpoint Depression Visibility Wind Speed Wind Dir Waves Ship Positions

Syosyun

Last reported at 2017-Aug-21 06:28 UTC. Time now 2017-Aug-21 06:34 UTC.
Position N 35°37' E 139°57'.

Length 74 m; draft 4.6 m.

Type: Cargo ship. MMSI: 431000201.

Date/timePositionNaut miles runAvg speedWind from/ knotsBaromVisibWave heightAir tempDewpointWater temp
2017-Aug-21 06:28N 35°37' E 139°57'0 0.0
2017-Aug-21 05:58N 35°37' E 139°57'0 0.0
2017-Aug-21 04:57N 35°37' E 139°57'0 0.0
2017-Aug-21 04:25N 35°37' E 139°57'0 0.0
2017-Aug-21 03:58N 35°37' E 139°57'0 0.0
2017-Aug-21 03:27N 35°37' E 139°57'0 0.0
2017-Aug-21 03:00N 35°37' E 139°57'0 0.1
2017-Aug-21 02:12N 35°37' E 139°57'0 0.0
2017-Aug-21 01:43N 35°37' E 139°57'0 0.0
2017-Aug-21 01:09N 35°37' E 139°57'0 0.0
2017-Aug-21 00:46N 35°37' E 139°57'0 0.0
2017-Aug-20 18:45N 35°37' E 139°57'0 0.0
2017-Aug-20 18:24N 35°37' E 139°57'0 0.0
2017-Aug-20 18:00N 35°37' E 139°57'5 9.2
2017-Aug-20 17:30N 35°33' E 139°55'510.7
2017-Aug-20 17:01N 35°28' E 139°51'510.8
2017-Aug-20 16:30N 35°24' E 139°46'511.0
2017-Aug-20 16:01N 35°19' E 139°44'610.6
2017-Aug-20 15:29N 35°14' E 139°47'247 4.8
2017-Aug-18 11:35N 34°41' E 134°48'110.8
2017-Aug-18 11:29N 34°40' E 134°49'511.2
2017-Aug-18 11:00N 34°37' E 134°55'712.8
2017-Aug-18 10:28N 34°36' E 135°03'511.8
2017-Aug-18 10:00N 34°36' E 135°09'611.4
2017-Aug-18 09:30N 34°35' E 135°16'510.8
2017-Aug-18 09:00N 34°33' E 135°23'3 0.6
2017-Aug-18 03:41N 34°33' E 135°26'1 6.9
2017-Aug-18 03:30N 34°33' E 135°25'3 0.6
2017-Aug-17 23:28N 34°31' E 135°24'0 0.0
2017-Aug-17 22:58N 34°31' E 135°24'0 0.0
2017-Aug-17 19:04N 34°31' E 135°24'0 0.0
2017-Aug-17 18:52N 34°31' E 135°24'0 0.0
2017-Aug-17 17:40N 34°31' E 135°24'0 0.0
2017-Aug-17 16:40N 34°31' E 135°24'0 0.0
2017-Aug-17 16:28N 34°31' E 135°24'0 0.0
2017-Aug-17 15:40N 34°31' E 135°24'0 0.0
2017-Aug-17 15:04N 34°31' E 135°24'0 0.0
2017-Aug-17 14:52N 34°31' E 135°24'0 0.0
2017-Aug-17 14:28N 34°31' E 135°24'0 0.0
2017-Aug-17 11:52N 34°31' E 135°24'0 0.0
2017-Aug-17 09:58N 34°31' E 135°24'0 0.0
2017-Aug-17 05:13N 34°31' E 135°24'1 3.2
2017-Aug-17 04:59N 34°32' E 135°24'510.3
2017-Aug-17 04:30N 34°34' E 135°19'611.1
2017-Aug-17 04:00N 34°34' E 135°12'612.0
2017-Aug-17 03:30N 34°34' E 135°05'  
2017-Aug-14 07:33N 34°41' E 134°49'110.7
2017-Aug-14 07:29N 34°40' E 134°49'510.2
2017-Aug-14 06:57N 34°37' E 134°55'511.5
2017-Aug-14 06:30N 34°37' E 135°01'510.4
2017-Aug-14 06:00N 34°36' E 135°08'511.0
2017-Aug-14 05:30N 34°36' E 135°14'610.9
2017-Aug-14 05:00N 34°36' E 135°21'5 8.1
2017-Aug-14 04:27N 34°35' E 135°26'0 0.0
2017-Aug-14 02:22N 34°35' E 135°26'0 0.7
2017-Aug-14 02:00N 34°35' E 135°26'1 1.0
2017-Aug-14 01:30N 34°35' E 135°27'0 0.0
2017-Aug-14 01:00N 34°35' E 135°27'0 0.0
2017-Aug-14 00:26N 34°35' E 135°27'0 0.1
2017-Aug-13 23:59N 34°35' E 135°27'0 0.1
2017-Aug-13 23:30N 34°35' E 135°27'0 0.0
2017-Aug-13 22:49N 34°35' E 135°27'0 0.0
2017-Aug-13 22:30N 34°35' E 135°27'0 0.0
2017-Aug-13 22:00N 34°35' E 135°27'4 8.6
2017-Aug-13 21:30N 34°37' E 135°23'5 9.0
2017-Aug-13 21:00N 34°39' E 135°28'0 0.0
2017-Aug-12 00:47N 34°39' E 135°28'0 0.0
2017-Aug-12 00:29N 34°39' E 135°28'0 0.0
2017-Aug-11 23:59N 34°39' E 135°28'0 0.0
2017-Aug-11 23:29N 34°39' E 135°28'0 0.0
2017-Aug-11 22:53N 34°39' E 135°28'0 0.0
2017-Aug-11 22:23N 34°39' E 135°28'0 0.0
2017-Aug-11 21:59N 34°39' E 135°28'0 0.0
2017-Aug-11 21:29N 34°39' E 135°28'0 0.0
2017-Aug-11 20:41N 34°39' E 135°28'0 0.0
2017-Aug-11 20:29N 34°39' E 135°28'0 0.0
2017-Aug-11 19:47N 34°39' E 135°28'0 0.0
2017-Aug-11 19:29N 34°39' E 135°28'0 0.0
2017-Aug-11 18:47N 34°39' E 135°28'0 0.0
2017-Aug-11 18:17N 34°39' E 135°28'0 0.0
2017-Aug-11 17:59N 34°39' E 135°28'0 0.0
2017-Aug-11 17:23N 34°39' E 135°28'0 0.0
2017-Aug-11 16:53N 34°39' E 135°28'0 0.0
2017-Aug-11 16:29N 34°39' E 135°28'0 0.0
2017-Aug-11 15:59N 34°39' E 135°28'0 0.0
2017-Aug-11 15:29N 34°39' E 135°28'0 0.0
2017-Aug-11 14:59N 34°39' E 135°28'0 0.0
2017-Aug-11 14:29N 34°39' E 135°28'0 0.0
2017-Aug-11 13:29N 34°39' E 135°28'0 0.0
2017-Aug-11 12:59N 34°39' E 135°28'0 0.0
2017-Aug-11 12:17N 34°39' E 135°28'0 0.0
2017-Aug-11 11:59N 34°39' E 135°28'0 0.0
2017-Aug-11 11:29N 34°39' E 135°28'0 0.0
2017-Aug-11 10:59N 34°39' E 135°28'0 0.0
2017-Aug-11 10:23N 34°39' E 135°28'0 0.0
2017-Aug-11 09:59N 34°39' E 135°28'0 0.0
2017-Aug-11 09:29N 34°39' E 135°28'0 0.0
2017-Aug-11 08:53N 34°39' E 135°28'0 0.0
2017-Aug-11 08:17N 34°39' E 135°28'0 0.0
2017-Aug-11 07:53N 34°39' E 135°28'0 0.0
2017-Aug-11 07:29N 34°39' E 135°28'0 0.0
2017-Aug-11 06:59N 34°39' E 135°28'  
Track history (hours):
 
Tides and Currents Weather Stations Pressure Air Temp Water Temp Dewpoint Dewpoint Depression Visibility Wind Speed Wind Dir Waves Ship Positions

Syosyun

Last reported at 2017-Aug-21 06:28 UTC. Time now 2017-Aug-21 06:34 UTC.
Position N 35°37' E 139°57'.

Length 74 m; draft 4.6 m.

Type: Cargo ship. MMSI: 431000201.

Date/timePositionNaut miles runAvg speedWind from/ knotsBaromVisibWave heightAir tempDewpointWater temp
2017-Aug-21 06:28N 35°37' E 139°57'0 0.0
2017-Aug-21 05:58N 35°37' E 139°57'0 0.0
2017-Aug-21 04:57N 35°37' E 139°57'0 0.0
2017-Aug-21 04:25N 35°37' E 139°57'0 0.0
2017-Aug-21 03:58N 35°37' E 139°57'0 0.0
2017-Aug-21 03:27N 35°37' E 139°57'0 0.0
2017-Aug-21 03:00N 35°37' E 139°57'0 0.1
2017-Aug-21 02:12N 35°37' E 139°57'0 0.0
2017-Aug-21 01:43N 35°37' E 139°57'0 0.0
2017-Aug-21 01:09N 35°37' E 139°57'0 0.0
2017-Aug-21 00:46N 35°37' E 139°57'0 0.0
2017-Aug-20 18:45N 35°37' E 139°57'0 0.0
2017-Aug-20 18:24N 35°37' E 139°57'0 0.0
2017-Aug-20 18:00N 35°37' E 139°57'5 9.2
2017-Aug-20 17:30N 35°33' E 139°55'510.7
2017-Aug-20 17:01N 35°28' E 139°51'510.8
2017-Aug-20 16:30N 35°24' E 139°46'511.0
2017-Aug-20 16:01N 35°19' E 139°44'610.6
2017-Aug-20 15:29N 35°14' E 139°47'247 4.8
2017-Aug-18 11:35N 34°41' E 134°48'110.8
2017-Aug-18 11:29N 34°40' E 134°49'511.2
2017-Aug-18 11:00N 34°37' E 134°55'712.8
2017-Aug-18 10:28N 34°36' E 135°03'511.8
2017-Aug-18 10:00N 34°36' E 135°09'611.4
2017-Aug-18 09:30N 34°35' E 135°16'510.8
2017-Aug-18 09:00N 34°33' E 135°23'3 0.6
2017-Aug-18 03:41N 34°33' E 135°26'1 6.9
2017-Aug-18 03:30N 34°33' E 135°25'3 0.6
2017-Aug-17 23:28N 34°31' E 135°24'0 0.0
2017-Aug-17 22:58N 34°31' E 135°24'0 0.0
2017-Aug-17 19:04N 34°31' E 135°24'0 0.0
2017-Aug-17 18:52N 34°31' E 135°24'0 0.0
2017-Aug-17 17:40N 34°31' E 135°24'0 0.0
2017-Aug-17 16:40N 34°31' E 135°24'0 0.0
2017-Aug-17 16:28N 34°31' E 135°24'0 0.0
2017-Aug-17 15:40N 34°31' E 135°24'0 0.0
2017-Aug-17 15:04N 34°31' E 135°24'0 0.0
2017-Aug-17 14:52N 34°31' E 135°24'0 0.0
2017-Aug-17 14:28N 34°31' E 135°24'0 0.0
2017-Aug-17 11:52N 34°31' E 135°24'0 0.0
2017-Aug-17 09:58N 34°31' E 135°24'0 0.0
2017-Aug-17 05:13N 34°31' E 135°24'1 3.2
2017-Aug-17 04:59N 34°32' E 135°24'510.3
2017-Aug-17 04:30N 34°34' E 135°19'611.1
2017-Aug-17 04:00N 34°34' E 135°12'612.0
2017-Aug-17 03:30N 34°34' E 135°05'  
2017-Aug-14 07:33N 34°41' E 134°49'110.7
2017-Aug-14 07:29N 34°40' E 134°49'510.2
2017-Aug-14 06:57N 34°37' E 134°55'511.5
2017-Aug-14 06:30N 34°37' E 135°01'510.4
2017-Aug-14 06:00N 34°36' E 135°08'511.0
2017-Aug-14 05:30N 34°36' E 135°14'610.9
2017-Aug-14 05:00N 34°36' E 135°21'5 8.1
2017-Aug-14 04:27N 34°35' E 135°26'0 0.0
2017-Aug-14 02:22N 34°35' E 135°26'0 0.7
2017-Aug-14 02:00N 34°35' E 135°26'1 1.0
2017-Aug-14 01:30N 34°35' E 135°27'0 0.0
2017-Aug-14 01:00N 34°35' E 135°27'0 0.0
2017-Aug-14 00:26N 34°35' E 135°27'0 0.1
2017-Aug-13 23:59N 34°35' E 135°27'0 0.1
2017-Aug-13 23:30N 34°35' E 135°27'0 0.0
2017-Aug-13 22:49N 34°35' E 135°27'0 0.0
2017-Aug-13 22:30N 34°35' E 135°27'0 0.0
2017-Aug-13 22:00N 34°35' E 135°27'4 8.6
2017-Aug-13 21:30N 34°37' E 135°23'5 9.0
2017-Aug-13 21:00N 34°39' E 135°28'0 0.0
2017-Aug-12 00:47N 34°39' E 135°28'0 0.0
2017-Aug-12 00:29N 34°39' E 135°28'0 0.0
2017-Aug-11 23:59N 34°39' E 135°28'0 0.0
2017-Aug-11 23:29N 34°39' E 135°28'0 0.0
2017-Aug-11 22:53N 34°39' E 135°28'0 0.0
2017-Aug-11 22:23N 34°39' E 135°28'0 0.0
2017-Aug-11 21:59N 34°39' E 135°28'0 0.0
2017-Aug-11 21:29N 34°39' E 135°28'0 0.0
2017-Aug-11 20:41N 34°39' E 135°28'0 0.0
2017-Aug-11 20:29N 34°39' E 135°28'0 0.0
2017-Aug-11 19:47N 34°39' E 135°28'0 0.0
2017-Aug-11 19:29N 34°39' E 135°28'0 0.0
2017-Aug-11 18:47N 34°39' E 135°28'0 0.0
2017-Aug-11 18:17N 34°39' E 135°28'0 0.0
2017-Aug-11 17:59N 34°39' E 135°28'0 0.0
2017-Aug-11 17:23N 34°39' E 135°28'0 0.0
2017-Aug-11 16:53N 34°39' E 135°28'0 0.0
2017-Aug-11 16:29N 34°39' E 135°28'0 0.0
2017-Aug-11 15:59N 34°39' E 135°28'0 0.0
2017-Aug-11 15:29N 34°39' E 135°28'0 0.0
2017-Aug-11 14:59N 34°39' E 135°28'0 0.0
2017-Aug-11 14:29N 34°39' E 135°28'0 0.0
2017-Aug-11 13:29N 34°39' E 135°28'0 0.0
2017-Aug-11 12:59N 34°39' E 135°28'0 0.0
2017-Aug-11 12:17N 34°39' E 135°28'0 0.0
2017-Aug-11 11:59N 34°39' E 135°28'0 0.0
2017-Aug-11 11:29N 34°39' E 135°28'0 0.0
2017-Aug-11 10:59N 34°39' E 135°28'0 0.0
2017-Aug-11 10:23N 34°39' E 135°28'0 0.0
2017-Aug-11 09:59N 34°39' E 135°28'0 0.0
2017-Aug-11 09:29N 34°39' E 135°28'0 0.0
2017-Aug-11 08:53N 34°39' E 135°28'0 0.0
2017-Aug-11 08:17N 34°39' E 135°28'0 0.0
2017-Aug-11 07:53N 34°39' E 135°28'0 0.0
2017-Aug-11 07:29N 34°39' E 135°28'0 0.0
2017-Aug-11 06:59N 34°39' E 135°28'  

Dump ship's entire track history